createdAt,value
2023-02-23T00:02:50.489Z,15.13
2023-02-23T00:07:52.697Z,15.13
2023-02-23T00:12:54.437Z,14.45
2023-02-23T00:17:57.545Z,15.02
2023-02-23T00:22:59.314Z,14.13
2023-02-23T00:28:01.047Z,14.38
2023-02-23T00:33:02.934Z,15.25
2023-02-23T00:38:04.697Z,15.25
2023-02-23T00:43:06.724Z,13.93
2023-02-23T00:48:10.892Z,14.77
2023-02-23T00:53:14.116Z,15.35
2023-02-23T00:58:17.380Z,15.70
2023-02-23T01:03:19.321Z,14.85
2023-02-23T01:08:24.607Z,14.65
2023-02-23T01:13:28.152Z,14.90
2023-02-23T01:18:29.914Z,14.73
2023-02-23T01:23:32.723Z,14.68
2023-02-23T01:28:34.605Z,13.38
2023-02-23T01:33:37.435Z,14.40
2023-02-23T01:38:40.169Z,14.73
2023-02-23T01:44:13.856Z,13.02
2023-02-23T01:49:25.650Z,13.00
2023-02-23T01:54:31.984Z,13.27
2023-02-23T01:59:39.899Z,14.35
2023-02-23T02:04:46.324Z,13.00
2023-02-23T02:10:09.712Z,14.60
2023-02-23T02:15:19.273Z,12.82
2023-02-23T02:20:34.311Z,12.88
2023-02-23T02:25:47.910Z,13.25
2023-02-23T02:31:22.154Z,12.82
2023-02-23T02:36:52.005Z,13.65
2023-02-23T02:42:10.859Z,12.20
2023-02-23T02:47:19.255Z,13.05
2023-02-23T02:52:28.795Z,12.55
2023-02-23T02:57:33.158Z,13.27
2023-02-23T03:02:57.920Z,13.88
2023-02-23T03:08:24.180Z,14.38
2023-02-23T03:14:04.010Z,12.63
2023-02-23T03:19:49.878Z,12.63
2023-02-23T03:25:23.615Z,13.27
2023-02-23T03:30:48.008Z,13.55
2023-02-23T03:36:18.651Z,12.60
2023-02-23T03:41:42.375Z,14.10
2023-02-23T03:47:05.901Z,13.30
2023-02-23T03:52:35.143Z,14.10
2023-02-23T03:57:58.923Z,12.82
2023-02-23T04:03:22.542Z,13.07
2023-02-23T04:08:49.458Z,13.75
2023-02-23T04:13:57.207Z,13.38
2023-02-23T04:18:59.080Z,13.38
2023-02-23T04:24:00.878Z,12.98
2023-02-23T04:29:02.745Z,13.77
2023-02-23T04:34:04.981Z,13.82
2023-02-23T04:39:06.732Z,13.68
2023-02-23T04:44:08.541Z,14.95
2023-02-23T04:49:10.515Z,15.05
2023-02-23T04:54:12.292Z,13.77
2023-02-23T04:59:14.080Z,14.43
2023-02-23T05:04:15.928Z,13.98
2023-02-23T05:09:17.693Z,12.88
2023-02-23T05:14:19.477Z,13.07
2023-02-23T05:19:22.060Z,13.52
2023-02-23T05:24:23.884Z,13.00
2023-02-23T05:29:25.677Z,12.75
2023-02-23T05:34:27.507Z,13.35
2023-02-23T05:39:29.288Z,14.07
2023-02-23T05:44:31.070Z,15.18
2023-02-23T05:49:32.847Z,14.23
2023-02-23T05:54:34.813Z,15.05
2023-02-23T05:59:36.606Z,14.77
2023-02-23T06:04:38.427Z,16.90
2023-02-23T06:09:42.897Z,16.77
2023-02-23T06:14:46.072Z,16.00
2023-02-23T06:19:47.827Z,18.38
2023-02-23T06:24:49.754Z,16.65
2023-02-23T06:29:51.646Z,15.38
2023-02-23T06:34:53.390Z,14.88
2023-02-23T06:39:55.175Z,16.40
2023-02-23T06:44:56.943Z,15.98
2023-02-23T06:50:00.071Z,14.63
2023-02-23T06:55:01.857Z,16.42
2023-02-23T07:00:04.870Z,16.33
2023-02-23T07:05:06.869Z,14.88
2023-02-23T07:10:09.369Z,14.55
2023-02-23T07:15:11.808Z,15.27
2023-02-23T07:20:13.750Z,14.80
2023-02-23T07:25:15.566Z,15.38
2023-02-23T07:35:38.607Z,15.70
2023-02-23T07:40:40.676Z,16.33
2023-02-23T07:45:45.507Z,17.08
2023-02-23T07:50:48.787Z,16.85
2023-02-23T07:56:04.242Z,15.82
2023-02-23T08:01:06.358Z,16.17
2023-02-23T08:06:08.234Z,15.95
2023-02-23T08:11:10.035Z,17.23
2023-02-23T08:16:12.640Z,16.80
2023-02-23T08:21:14.390Z,16.20
2023-02-23T08:26:16.297Z,15.85
2023-02-23T08:31:21.568Z,17.23
2023-02-23T08:36:23.741Z,16.63
2023-02-23T08:41:26.295Z,17.15
2023-02-23T08:46:28.155Z,16.70
2023-02-23T08:51:30.019Z,17.67
2023-02-23T08:56:31.911Z,17.15
2023-02-23T09:01:33.932Z,16.63
2023-02-23T09:06:37.262Z,17.30
2023-02-23T09:11:39.071Z,17.15
2023-02-23T09:16:40.819Z,17.48
2023-02-23T09:21:44.221Z,17.45
2023-02-23T09:26:46.064Z,17.40
2023-02-23T09:31:48.003Z,17.83
2023-02-23T09:36:49.925Z,16.77
2023-02-23T09:41:51.901Z,17.08
2023-02-23T09:47:21.349Z,16.75
2023-02-23T09:52:35.620Z,16.02
2023-02-23T09:57:40.361Z,16.20
2023-02-23T10:03:08.424Z,16.20
2023-02-23T10:08:30.341Z,16.30
2023-02-23T10:13:50.645Z,15.43
2023-02-23T10:19:13.120Z,15.85
2023-02-23T10:24:56.392Z,17.15
2023-02-23T10:30:02.905Z,14.95
2023-02-23T10:35:15.228Z,15.65
2023-02-23T10:40:28.946Z,14.80
2023-02-23T10:45:45.636Z,16.23
2023-02-23T10:50:50.041Z,15.10
2023-02-23T10:56:17.014Z,14.27
2023-02-23T11:02:00.356Z,14.27
2023-02-23T11:07:16.425Z,13.00
2023-02-23T11:12:26.399Z,13.20
2023-02-23T11:17:30.191Z,12.05
2023-02-23T11:22:36.191Z,12.15
2023-02-23T11:27:38.020Z,12.80
2023-02-23T11:32:43.310Z,12.25
2023-02-23T11:37:45.195Z,12.25
2023-02-23T11:42:54.372Z,11.85
2023-02-23T11:47:59.461Z,11.05
2023-02-23T11:53:05.962Z,11.23
2023-02-23T11:58:19.349Z,12.10
2023-02-23T12:03:24.753Z,11.05
2023-02-23T12:08:31.415Z,11.90
2023-02-23T12:13:39.839Z,11.65
2023-02-23T12:19:08.644Z,10.57
2023-02-23T12:24:32.155Z,10.88
2023-02-23T12:35:18.327Z,11.82
2023-02-23T12:40:30.484Z,11.45
2023-02-23T12:45:46.130Z,11.05
2023-02-23T12:50:54.434Z,10.75
2023-02-23T12:55:59.131Z,10.93
2023-02-23T13:01:05.189Z,11.05
2023-02-23T13:06:25.898Z,11.10
2023-02-23T13:11:46.369Z,11.48
2023-02-23T13:16:54.978Z,10.20
2023-02-23T13:22:11.773Z,11.02
2023-02-23T13:27:46.928Z,11.05
2023-02-23T13:32:49.424Z,11.85
2023-02-23T13:38:31.538Z,11.18
2023-02-23T13:43:47.463Z,9.82
2023-02-23T13:49:02.994Z,11.73
2023-02-23T13:54:14.755Z,10.57
2023-02-23T13:59:19.803Z,11.20
2023-02-23T14:04:27.766Z,10.10
2023-02-23T14:09:47.519Z,11.20
2023-02-23T14:14:49.609Z,10.40
2023-02-23T14:20:13.261Z,10.45
2023-02-23T14:25:30.232Z,9.80
2023-02-23T14:30:51.410Z,11.10
2023-02-23T14:35:54.620Z,10.90
2023-02-23T14:40:56.514Z,11.18
2023-02-23T14:46:01.326Z,10.93
2023-02-23T14:51:17.104Z,12.73
2023-02-23T14:56:21.193Z,11.15
2023-02-23T15:01:38.317Z,10.48
2023-02-23T15:06:47.061Z,12.07
2023-02-23T15:11:54.105Z,11.65
2023-02-23T15:16:56.729Z,13.45
2023-02-23T15:22:00.539Z,14.88
2023-02-23T15:27:02.283Z,15.52
2023-02-23T15:32:19.423Z,15.10
2023-02-23T15:37:34.096Z,15.63
2023-02-23T15:42:41.214Z,16.17
2023-02-23T15:47:43.234Z,18.05
2023-02-23T15:52:58.599Z,18.60
2023-02-23T15:58:02.069Z,15.55
2023-02-23T16:03:06.314Z,16.00
2023-02-23T16:08:23.144Z,15.43
2023-02-23T16:13:25.053Z,14.93
2023-02-23T16:18:36.422Z,16.55
2023-02-23T16:23:45.618Z,15.07
2023-02-23T16:28:47.425Z,14.90
2023-02-23T16:33:57.100Z,15.18
2023-02-23T16:39:00.256Z,16.15
2023-02-23T16:44:05.037Z,17.65
2023-02-23T16:49:24.294Z,16.00
2023-02-23T16:54:26.798Z,17.30
2023-02-23T16:59:30.255Z,21.48
2023-02-23T17:04:32.022Z,22.13
2023-02-23T17:09:33.802Z,22.70
2023-02-23T17:14:35.614Z,21.50
2023-02-23T17:19:37.440Z,21.27
2023-02-23T17:24:40.250Z,20.88
2023-02-23T17:29:42.567Z,21.20
2023-02-23T17:34:44.334Z,34.00
2023-02-23T17:39:49.726Z,26.88
2023-02-23T17:44:53.412Z,24.77
2023-02-23T17:49:55.220Z,23.08
2023-02-23T17:54:58.378Z,28.23
2023-02-23T18:00:01.150Z,25.70
2023-02-23T18:05:02.914Z,24.13
2023-02-23T18:10:06.250Z,25.52
2023-02-23T18:15:08.372Z,23.83
2023-02-23T18:20:16.242Z,25.25
2023-02-23T18:25:27.925Z,26.10
2023-02-23T18:30:29.827Z,25.70
2023-02-23T18:35:37.807Z,25.55
2023-02-23T18:40:40.335Z,27.55
2023-02-23T18:45:43.338Z,27.92
2023-02-23T18:50:45.094Z,28.77
2023-02-23T18:55:47.337Z,27.60
2023-02-23T19:00:49.116Z,26.75
2023-02-23T19:05:53.312Z,26.05
2023-02-23T19:10:55.171Z,73.15
2023-02-23T19:15:58.878Z,106.13
2023-02-23T19:21:00.634Z,87.47
2023-02-23T19:26:03.525Z,66.05
2023-02-23T19:31:11.728Z,29.48
2023-02-23T19:36:19.266Z,43.28
2023-02-23T19:41:21.706Z,31.30
2023-02-23T19:46:25.661Z,36.42
2023-02-23T19:51:28.063Z,31.67
2023-02-23T19:56:30.329Z,30.10
2023-02-23T20:01:32.381Z,31.85
2023-02-23T20:06:39.523Z,33.58
2023-02-23T20:11:42.660Z,38.70
2023-02-23T20:16:44.632Z,33.20
2023-02-23T20:21:46.503Z,24.67
2023-02-23T20:26:48.747Z,37.30
2023-02-23T20:31:51.979Z,29.73
2023-02-23T20:36:55.732Z,31.08
2023-02-23T20:41:57.486Z,22.98
2023-02-23T20:47:00.823Z,22.55
2023-02-23T20:52:03.347Z,32.20
2023-02-23T20:57:08.266Z,28.80
2023-02-23T21:02:13.778Z,17.65
2023-02-23T21:07:15.816Z,17.40
2023-02-23T21:12:17.558Z,17.63
2023-02-23T21:17:19.395Z,18.88
2023-02-23T21:22:21.221Z,18.17
2023-02-23T21:27:23.948Z,20.27
2023-02-23T21:32:27.160Z,20.48
2023-02-23T21:37:29.007Z,20.52
2023-02-23T21:42:31.097Z,21.92
2023-02-23T21:47:37.374Z,21.75
2023-02-23T21:52:43.384Z,25.13
2023-02-23T21:57:45.212Z,27.38
2023-02-23T22:02:47.126Z,26.40
2023-02-23T22:07:51.010Z,28.05
2023-02-23T22:12:56.375Z,28.08
2023-02-23T22:17:58.209Z,32.70
2023-02-23T22:22:59.965Z,34.13
2023-02-23T22:28:02.022Z,34.70
2023-02-23T22:33:03.889Z,37.63
2023-02-23T22:38:05.787Z,35.28
2023-02-23T22:43:08.929Z,35.35
2023-02-23T22:48:10.727Z,27.05
2023-02-23T22:53:12.470Z,25.20
2023-02-23T22:58:15.269Z,24.05
2023-02-23T23:03:17.032Z,26.23
2023-02-23T23:08:18.833Z,25.83
2023-02-23T23:13:20.600Z,26.10
2023-02-23T23:18:24.633Z,25.73
2023-02-23T23:23:26.536Z,26.25
2023-02-23T23:28:28.688Z,25.98
2023-02-23T23:33:30.792Z,28.48
2023-02-23T23:38:34.132Z,30.55
2023-02-23T23:43:37.331Z,29.10
2023-02-23T23:48:39.411Z,31.42
2023-02-23T23:53:42.421Z,31.88
2023-02-23T23:58:44.640Z,30.33
